Steele, Missouri
Current Conditions -  °F | °C
As of 10:53 PM on Monday 20 Oct 2014 (Local Time) from KHKA Reporting Station
Clear Clear  
Wind Chill: 59°   Ceiling: Unl
Heat Index: 59°   Visibility: 10mi
Dew Point: 54°   Wind: 6mph
Humidity: 83%   Direction: 220°SW
Pressure: 30.03"   Gusts: NA
Location:  36.08°N, 89.83°W
Report Text: KHKA 210353Z AUTO 22005KT 10SM CLR 15/12 A3003 RMK AO2 SLP166 T01500122
Loading
Personal Weather Stations






























Interactive Weather Map New forecast layout! Learn more

10-Day Weather Forecast

Advertisements
Track Severe Weather on mobile